createdAt,value
2023-02-01T00:04:07.248Z,6.10
2023-02-01T00:14:12.549Z,5.70
2023-02-01T00:24:16.363Z,5.40
2023-02-01T00:34:22.095Z,4.90
2023-02-01T00:44:25.854Z,5.50
2023-02-01T00:54:31.256Z,5.50
2023-02-01T01:04:34.941Z,5.80
2023-02-01T01:14:40.177Z,6.40
2023-02-01T01:24:43.865Z,6.40
2023-02-01T01:34:49.193Z,6.50
2023-02-01T01:45:04.967Z,6.20
2023-02-01T01:55:11.844Z,6.20
2023-02-01T02:05:15.993Z,6.20
2023-02-01T02:15:21.233Z,6.20
2023-02-01T02:26:02.667Z,6.20
2023-02-01T02:36:15.787Z,6.30
2023-02-01T02:46:41.994Z,6.60
2023-02-01T02:57:04.736Z,6.60
2023-02-01T03:07:17.268Z,6.60
2023-02-01T03:17:30.117Z,6.50
2023-02-01T03:27:38.116Z,6.40
2023-02-01T03:37:43.655Z,6.40
2023-02-01T03:47:51.566Z,6.40
2023-02-01T03:58:03.868Z,6.80
2023-02-01T04:08:07.753Z,6.70
2023-02-01T04:18:12.737Z,6.40
2023-02-01T04:28:16.469Z,6.50
2023-02-01T04:38:21.529Z,6.50
2023-02-01T04:48:25.254Z,6.50
2023-02-01T04:58:30.910Z,6.30
2023-02-01T05:08:36.270Z,6.30
2023-02-01T05:18:43.033Z,6.30
2023-02-01T05:28:46.890Z,6.20
2023-02-01T05:38:52.130Z,6.30
2023-02-01T05:48:56.204Z,6.30
2023-02-01T06:09:04.220Z,5.90
2023-02-01T06:19:10.040Z,5.90
2023-02-01T06:29:13.956Z,5.90
2023-02-01T06:39:19.224Z,5.90
2023-02-01T06:49:23.022Z,6.00
2023-02-01T06:59:28.221Z,6.10
2023-02-01T07:09:31.966Z,6.30
2023-02-01T07:19:37.467Z,6.30
2023-02-01T07:29:41.291Z,6.30
2023-02-01T07:39:46.541Z,6.30
2023-02-01T07:49:50.306Z,6.40
2023-02-01T08:00:12.616Z,6.40
2023-02-01T08:10:17.063Z,6.80
2023-02-01T08:20:24.826Z,7.50
2023-02-01T08:30:29.566Z,8.00
2023-02-01T08:40:34.740Z,8.40
2023-02-01T08:50:38.446Z,8.90
2023-02-01T09:00:43.717Z,9.40
2023-02-01T09:10:47.474Z,10.00
2023-02-01T09:20:52.764Z,10.50
2023-02-01T09:30:59.480Z,10.80
2023-02-01T09:41:09.333Z,11.30
2023-02-01T09:51:18.574Z,11.80
2023-02-01T10:01:25.750Z,12.00
2023-02-01T10:11:49.644Z,12.50
2023-02-01T10:21:57.646Z,13.10
2023-02-01T10:32:01.691Z,13.50
2023-02-01T10:42:06.963Z,13.70
2023-02-01T10:52:17.056Z,14.10
2023-02-01T11:02:31.246Z,14.90
2023-02-01T11:12:36.551Z,14.90
2023-02-01T11:22:48.502Z,15.10
2023-02-01T11:32:53.044Z,15.50
2023-02-01T11:42:59.869Z,16.30
2023-02-01T11:53:22.459Z,16.40
2023-02-01T12:03:55.250Z,16.10
2023-02-01T12:14:11.558Z,17.20
2023-02-01T12:24:42.257Z,17.00
2023-02-01T12:35:09.563Z,17.70
2023-02-01T12:45:22.990Z,17.30
2023-02-01T12:55:31.213Z,18.80
2023-02-01T13:05:42.944Z,19.60
2023-02-01T13:15:50.776Z,18.40
2023-02-01T13:25:56.840Z,18.40
2023-02-01T13:36:37.067Z,19.10
2023-02-01T13:46:48.857Z,19.00
2023-02-01T13:56:52.838Z,19.80
2023-02-01T14:06:59.374Z,20.10
2023-02-01T14:17:37.528Z,20.00
2023-02-01T14:27:43.139Z,20.80
2023-02-01T14:37:47.336Z,20.60
2023-02-01T14:47:55.683Z,20.70
2023-02-01T14:58:01.921Z,19.80
2023-02-01T15:08:17.419Z,19.80
2023-02-01T15:18:23.831Z,19.50
2023-02-01T15:28:29.330Z,19.30
2023-02-01T15:38:41.839Z,19.10
2023-02-01T15:48:50.753Z,17.40
2023-02-01T15:58:57.266Z,16.60
2023-02-01T16:09:14.524Z,16.00
2023-02-01T16:19:18.195Z,15.70
2023-02-01T16:29:23.364Z,15.50
2023-02-01T16:39:28.855Z,14.60
2023-02-01T16:49:34.185Z,13.70
2023-02-01T16:59:38.081Z,13.00
2023-02-01T17:09:43.241Z,12.90
2023-02-01T17:19:48.948Z,12.40
2023-02-01T17:29:55.351Z,11.50
2023-02-01T17:39:59.505Z,10.80
2023-02-01T17:50:04.792Z,10.40
2023-02-01T18:00:09.746Z,10.10
2023-02-01T18:10:24.024Z,10.00
2023-02-01T18:20:28.859Z,9.60
2023-02-01T18:30:35.754Z,9.30
2023-02-01T18:40:45.369Z,9.10
2023-02-01T18:50:57.361Z,8.80
2023-02-01T19:01:09.113Z,8.70
2023-02-01T19:11:19.250Z,8.60
2023-02-01T19:21:23.414Z,8.00
2023-02-01T19:31:28.656Z,8.00
2023-02-01T19:41:32.308Z,7.80
2023-02-01T19:51:38.697Z,8.00
2023-02-01T20:01:44.458Z,7.80
2023-02-01T20:11:50.111Z,7.90
2023-02-01T20:21:54.306Z,7.90
2023-02-01T20:32:00.153Z,7.60
2023-02-01T20:42:03.974Z,8.00
2023-02-01T20:52:09.160Z,7.80
2023-02-01T21:02:22.476Z,7.90
2023-02-01T21:12:28.057Z,8.10
2023-02-01T21:22:32.376Z,7.60
2023-02-01T21:32:37.839Z,7.50
2023-02-01T21:42:43.878Z,7.20
2023-02-01T21:52:49.262Z,7.40
2023-02-01T22:02:52.816Z,7.40
2023-02-01T22:12:57.808Z,7.30
2023-02-01T22:23:02.169Z,7.80
2023-02-01T22:33:07.683Z,8.10
2023-02-01T22:43:14.003Z,8.20
2023-02-01T22:53:20.068Z,8.30
2023-02-01T23:03:23.848Z,8.20
2023-02-01T23:13:29.334Z,8.10
2023-02-01T23:23:33.010Z,8.00
2023-02-01T23:33:39.272Z,8.00
2023-02-01T23:44:01.936Z,8.30
2023-02-01T23:54:07.711Z,8.30
